sensor_id;sensor_type;location;lat;lon;timestamp;pressure;altitude;pressure_sealevel;temperature;humidity
11678;BME280;5895;41.950;24.372;2023-04-06T00:01:28;86161.53;;;0.08;94.32
11678;BME280;5895;41.950;24.372;2023-04-06T00:03:55;86161.50;;;0.01;94.94
11678;BME280;5895;41.950;24.372;2023-04-06T00:06:23;86162.63;;;-0.02;93.91
11678;BME280;5895;41.950;24.372;2023-04-06T00:08:50;86163.00;;;-0.05;95.79
11678;BME280;5895;41.950;24.372;2023-04-06T00:11:17;86157.84;;;-0.11;95.78
11678;BME280;5895;41.950;24.372;2023-04-06T00:13:44;86160.31;;;-0.18;95.51
11678;BME280;5895;41.950;24.372;2023-04-06T00:16:13;86156.94;;;-0.25;96.25
11678;BME280;5895;41.950;24.372;2023-04-06T00:18:41;86162.78;;;-0.31;96.05
11678;BME280;5895;41.950;24.372;2023-04-06T00:21:10;86152.75;;;-0.33;95.52
11678;BME280;5895;41.950;24.372;2023-04-06T00:23:38;86145.13;;;-0.33;95.21
11678;BME280;5895;41.950;24.372;2023-04-06T00:26:05;86149.44;;;-0.33;95.88
11678;BME280;5895;41.950;24.372;2023-04-06T00:28:32;86133.34;;;-0.34;95.04
11678;BME280;5895;41.950;24.372;2023-04-06T00:31:00;86142.13;;;-0.36;94.96
11678;BME280;5895;41.950;24.372;2023-04-06T00:33:28;86134.88;;;-0.39;95.30
11678;BME280;5895;41.950;24.372;2023-04-06T00:35:56;86129.53;;;-0.44;96.19
11678;BME280;5895;41.950;24.372;2023-04-06T00:38:23;86130.84;;;-0.48;95.70
11678;BME280;5895;41.950;24.372;2023-04-06T00:40:50;86122.97;;;-0.54;95.86
11678;BME280;5895;41.950;24.372;2023-04-06T00:43:17;86121.38;;;-0.55;96.75
11678;BME280;5895;41.950;24.372;2023-04-06T00:45:45;86116.66;;;-0.58;96.79
11678;BME280;5895;41.950;24.372;2023-04-06T00:48:12;86119.38;;;-0.59;95.96
11678;BME280;5895;41.950;24.372;2023-04-06T00:50:41;86125.25;;;-0.59;95.35
11678;BME280;5895;41.950;24.372;2023-04-06T00:53:09;86115.44;;;-0.62;95.79
11678;BME280;5895;41.950;24.372;2023-04-06T00:55:36;86114.81;;;-0.64;95.73
11678;BME280;5895;41.950;24.372;2023-04-06T00:58:03;86107.56;;;-0.67;95.66
11678;BME280;5895;41.950;24.372;2023-04-06T01:00:31;86121.25;;;-0.68;95.38
11678;BME280;5895;41.950;24.372;2023-04-06T01:02:59;86114.97;;;-0.72;96.79
11678;BME280;5895;41.950;24.372;2023-04-06T01:05:26;86120.41;;;-0.75;96.61
11678;BME280;5895;41.950;24.372;2023-04-06T01:07:55;86117.25;;;-0.77;97.14
11678;BME280;5895;41.950;24.372;2023-04-06T01:10:23;86113.66;;;-0.83;97.88
11678;BME280;5895;41.950;24.372;2023-04-06T01:12:51;86109.31;;;-0.89;98.29
11678;BME280;5895;41.950;24.372;2023-04-06T01:15:19;86110.03;;;-0.95;98.41
11678;BME280;5895;41.950;24.372;2023-04-06T01:17:47;86106.44;;;-1.00;99.08
11678;BME280;5895;41.950;24.372;2023-04-06T01:20:15;86104.22;;;-1.03;98.54
11678;BME280;5895;41.950;24.372;2023-04-06T01:22:43;86105.22;;;-1.04;96.90
11678;BME280;5895;41.950;24.372;2023-04-06T01:25:11;86103.44;;;-1.04;97.83
11678;BME280;5895;41.950;24.372;2023-04-06T01:27:38;86092.34;;;-1.18;100.00
11678;BME280;5895;41.950;24.372;2023-04-06T01:30:06;86090.16;;;-1.21;98.77
11678;BME280;5895;41.950;24.372;2023-04-06T01:32:34;86088.38;;;-1.20;99.17
11678;BME280;5895;41.950;24.372;2023-04-06T01:35:01;86082.75;;;-1.16;97.72
11678;BME280;5895;41.950;24.372;2023-04-06T01:37:28;86088.19;;;-1.19;98.25
11678;BME280;5895;41.950;24.372;2023-04-06T01:39:59;86081.53;;;-1.20;97.95
11678;BME280;5895;41.950;24.372;2023-04-06T01:42:27;86065.94;;;-1.17;97.82
11678;BME280;5895;41.950;24.372;2023-04-06T01:44:55;86075.13;;;-1.16;97.84
11678;BME280;5895;41.950;24.372;2023-04-06T01:47:23;86084.28;;;-1.21;97.67
11678;BME280;5895;41.950;24.372;2023-04-06T01:49:50;86087.16;;;-1.24;98.63
11678;BME280;5895;41.950;24.372;2023-04-06T01:52:17;86078.75;;;-1.25;97.80
11678;BME280;5895;41.950;24.372;2023-04-06T01:54:45;86081.47;;;-1.26;98.95
11678;BME280;5895;41.950;24.372;2023-04-06T01:57:13;86078.31;;;-1.28;98.00
11678;BME280;5895;41.950;24.372;2023-04-06T01:59:41;86085.25;;;-1.22;98.51
11678;BME280;5895;41.950;24.372;2023-04-06T02:02:08;86076.44;;;-1.20;97.08
11678;BME280;5895;41.950;24.372;2023-04-06T02:04:35;86081.19;;;-1.17;97.04
11678;BME280;5895;41.950;24.372;2023-04-06T02:07:02;86073.19;;;-1.14;97.09
11678;BME280;5895;41.950;24.372;2023-04-06T02:09:29;86078.91;;;-1.12;96.24
11678;BME280;5895;41.950;24.372;2023-04-06T02:11:57;86073.81;;;-1.12;96.54
11678;BME280;5895;41.950;24.372;2023-04-06T02:14:26;86072.84;;;-1.11;96.27
11678;BME280;5895;41.950;24.372;2023-04-06T02:16:53;86077.94;;;-1.11;96.45
11678;BME280;5895;41.950;24.372;2023-04-06T02:19:20;86073.63;;;-1.10;96.39
11678;BME280;5895;41.950;24.372;2023-04-06T02:21:48;86073.03;;;-1.12;95.59
11678;BME280;5895;41.950;24.372;2023-04-06T02:24:15;86059.66;;;-1.14;95.83
11678;BME280;5895;41.950;24.372;2023-04-06T02:26:42;86073.31;;;-1.22;96.25
11678;BME280;5895;41.950;24.372;2023-04-06T02:29:09;86071.09;;;-1.25;96.30
11678;BME280;5895;41.950;24.372;2023-04-06T02:31:38;86069.34;;;-1.24;96.48
11678;BME280;5895;41.950;24.372;2023-04-06T02:34:05;86074.28;;;-1.23;97.30
11678;BME280;5895;41.950;24.372;2023-04-06T02:36:32;86080.31;;;-1.24;97.28
11678;BME280;5895;41.950;24.372;2023-04-06T02:39:00;86070.38;;;-1.19;96.68
11678;BME280;5895;41.950;24.372;2023-04-06T02:41:27;86072.94;;;-1.19;97.10
11678;BME280;5895;41.950;24.372;2023-04-06T02:43:54;86079.97;;;-1.21;96.70
11678;BME280;5895;41.950;24.372;2023-04-06T02:46:21;86065.75;;;-1.15;96.86
11678;BME280;5895;41.950;24.372;2023-04-06T02:48:50;86072.22;;;-1.13;96.07
11678;BME280;5895;41.950;24.372;2023-04-06T02:51:17;86072.22;;;-1.13;96.12
11678;BME280;5895;41.950;24.372;2023-04-06T02:53:45;86070.63;;;-1.14;95.75
11678;BME280;5895;41.950;24.372;2023-04-06T02:56:12;86069.84;;;-1.14;95.72
11678;BME280;5895;41.950;24.372;2023-04-06T02:58:39;86064.34;;;-1.18;95.44
11678;BME280;5895;41.950;24.372;2023-04-06T03:01:06;86069.44;;;-1.18;95.54
11678;BME280;5895;41.950;24.372;2023-04-06T03:03:33;86073.72;;;-1.18;95.77
11678;BME280;5895;41.950;24.372;2023-04-06T03:06:02;86060.22;;;-1.19;95.99
11678;BME280;5895;41.950;24.372;2023-04-06T03:08:30;86076.44;;;-1.20;95.25
11678;BME280;5895;41.950;24.372;2023-04-06T03:10:57;86060.59;;;-1.22;95.15
11678;BME280;5895;41.950;24.372;2023-04-06T03:13:24;86058.81;;;-1.21;95.27
11678;BME280;5895;41.950;24.372;2023-04-06T03:15:51;86069.78;;;-1.21;95.59
11678;BME280;5895;41.950;24.372;2023-04-06T03:18:21;86057.25;;;-1.22;95.81
11678;BME280;5895;41.950;24.372;2023-04-06T03:20:49;86063.47;;;-1.25;95.65
11678;BME280;5895;41.950;24.372;2023-04-06T03:23:17;86061.91;;;-1.26;95.91
11678;BME280;5895;41.950;24.372;2023-04-06T03:25:46;86064.63;;;-1.27;95.31
11678;BME280;5895;41.950;24.372;2023-04-06T03:28:13;86066.91;;;-1.33;96.88
11678;BME280;5895;41.950;24.372;2023-04-06T03:30:41;86064.91;;;-1.37;96.32
11678;BME280;5895;41.950;24.372;2023-04-06T03:33:09;86068.06;;;-1.35;96.02
11678;BME280;5895;41.950;24.372;2023-04-06T03:35:36;86068.50;;;-1.31;95.95
11678;BME280;5895;41.950;24.372;2023-04-06T03:38:03;86066.53;;;-1.29;96.36
11678;BME280;5895;41.950;24.372;2023-04-06T03:40:32;86073.06;;;-1.27;95.89
11678;BME280;5895;41.950;24.372;2023-04-06T03:42:59;86077.16;;;-1.26;95.51
11678;BME280;5895;41.950;24.372;2023-04-06T03:45:26;86068.56;;;-1.25;95.65
11678;BME280;5895;41.950;24.372;2023-04-06T03:47:54;86074.44;;;-1.24;95.49
11678;BME280;5895;41.950;24.372;2023-04-06T03:50:21;86069.19;;;-1.23;95.96
11678;BME280;5895;41.950;24.372;2023-04-06T03:52:48;86079.97;;;-1.21;96.07
11678;BME280;5895;41.950;24.372;2023-04-06T03:55:15;86078.03;;;-1.19;95.16
11678;BME280;5895;41.950;24.372;2023-04-06T03:57:44;86077.25;;;-1.19;94.56
11678;BME280;5895;41.950;24.372;2023-04-06T04:00:12;86080.56;;;-1.19;95.54
11678;BME280;5895;41.950;24.372;2023-04-06T04:02:40;86083.75;;;-1.17;95.30
11678;BME280;5895;41.950;24.372;2023-04-06T04:05:08;86084.72;;;-1.18;95.29
11678;BME280;5895;41.950;24.372;2023-04-06T04:07:35;86087.25;;;-1.18;95.07
11678;BME280;5895;41.950;24.372;2023-04-06T04:10:03;86090.75;;;-1.19;94.93
11678;BME280;5895;41.950;24.372;2023-04-06T04:12:30;86085.84;;;-1.20;95.42
11678;BME280;5895;41.950;24.372;2023-04-06T04:14:59;86084.09;;;-1.20;95.31
11678;BME280;5895;41.950;24.372;2023-04-06T04:17:26;86086.63;;;-1.20;95.21
11678;BME280;5895;41.950;24.372;2023-04-06T04:19:53;86087.00;;;-1.23;95.13
11678;BME280;5895;41.950;24.372;2023-04-06T04:22:20;86083.50;;;-1.22;95.26
11678;BME280;5895;41.950;24.372;2023-04-06T04:24:48;86084.19;;;-1.28;96.12
11678;BME280;5895;41.950;24.372;2023-04-06T04:27:15;86076.31;;;-1.33;95.19
11678;BME280;5895;41.950;24.372;2023-04-06T04:29:42;86086.22;;;-1.38;96.09
11678;BME280;5895;41.950;24.372;2023-04-06T04:32:11;86083.44;;;-1.43;96.96
11678;BME280;5895;41.950;24.372;2023-04-06T04:34:38;86084.75;;;-1.47;96.70
11678;BME280;5895;41.950;24.372;2023-04-06T04:37:06;86085.13;;;-1.50;96.58
11678;BME280;5895;41.950;24.372;2023-04-06T04:39:33;86080.38;;;-1.53;96.28
11678;BME280;5895;41.950;24.372;2023-04-06T04:42:00;86086.44;;;-1.54;96.21
11678;BME280;5895;41.950;24.372;2023-04-06T04:44:28;86081.94;;;-1.52;96.83
11678;BME280;5895;41.950;24.372;2023-04-06T04:46:55;86085.13;;;-1.50;96.39
11678;BME280;5895;41.950;24.372;2023-04-06T04:49:24;86086.69;;;-1.49;96.52
11678;BME280;5895;41.950;24.372;2023-04-06T04:51:51;86090.34;;;-1.52;96.58
11678;BME280;5895;41.950;24.372;2023-04-06T04:54:18;86094.50;;;-1.51;96.65
11678;BME280;5895;41.950;24.372;2023-04-06T04:56:45;86094.31;;;-1.49;96.19
11678;BME280;5895;41.950;24.372;2023-04-06T04:59:13;86083.78;;;-1.46;96.14
11678;BME280;5895;41.950;24.372;2023-04-06T05:01:40;86088.69;;;-1.45;95.97
11678;BME280;5895;41.950;24.372;2023-04-06T05:04:07;86085.38;;;-1.45;96.25
11678;BME280;5895;41.950;24.372;2023-04-06T05:06:36;86085.97;;;-1.43;95.57
11678;BME280;5895;41.950;24.372;2023-04-06T05:09:03;86086.31;;;-1.46;95.95
11678;BME280;5895;41.950;24.372;2023-04-06T05:11:30;86080.09;;;-1.44;96.06
11678;BME280;5895;41.950;24.372;2023-04-06T05:13:57;86087.19;;;-1.39;95.90
11678;BME280;5895;41.950;24.372;2023-04-06T05:16:25;86082.38;;;-1.34;95.10
11678;BME280;5895;41.950;24.372;2023-04-06T05:18:53;86082.63;;;-1.29;95.46
11678;BME280;5895;41.950;24.372;2023-04-06T05:21:22;86084.28;;;-1.21;94.32
11678;BME280;5895;41.950;24.372;2023-04-06T05:23:50;86084.94;;;-1.13;93.89
11678;BME280;5895;41.950;24.372;2023-04-06T05:26:18;86080.09;;;-1.08;93.71
11678;BME280;5895;41.950;24.372;2023-04-06T05:28:45;86081.31;;;-1.03;92.71
11678;BME280;5895;41.950;24.372;2023-04-06T05:31:12;86077.09;;;-0.96;92.93
11678;BME280;5895;41.950;24.372;2023-04-06T05:33:40;86079.88;;;-0.91;92.11
11678;BME280;5895;41.950;24.372;2023-04-06T05:36:08;86069.34;;;-0.88;91.84
11678;BME280;5895;41.950;24.372;2023-04-06T05:38:35;86068.97;;;-0.85;92.35
11678;BME280;5895;41.950;24.372;2023-04-06T05:41:04;86073.34;;;-0.79;91.36
11678;BME280;5895;41.950;24.372;2023-04-06T05:43:31;86065.94;;;-0.74;91.16
11678;BME280;5895;41.950;24.372;2023-04-06T05:45:58;86068.72;;;-0.69;91.82
11678;BME280;5895;41.950;24.372;2023-04-06T05:48:26;86069.22;;;-0.59;91.09
11678;BME280;5895;41.950;24.372;2023-04-06T05:50:53;86057.94;;;-0.49;90.67
11678;BME280;5895;41.950;24.372;2023-04-06T05:53:20;86066.66;;;-0.37;90.63
11678;BME280;5895;41.950;24.372;2023-04-06T05:55:47;86063.03;;;-0.28;91.15
11678;BME280;5895;41.950;24.372;2023-04-06T05:58:17;86066.78;;;-0.17;90.52
11678;BME280;5895;41.950;24.372;2023-04-06T06:00:44;86058.25;;;-0.10;90.19
11678;BME280;5895;41.950;24.372;2023-04-06T06:03:12;86062.22;;;-0.01;91.03
11678;BME280;5895;41.950;24.372;2023-04-06T06:05:40;86061.47;;;0.06;91.10
11678;BME280;5895;41.950;24.372;2023-04-06T06:08:08;86055.47;;;0.20;90.32
11678;BME280;5895;41.950;24.372;2023-04-06T06:10:35;86060.81;;;0.25;89.90
11678;BME280;5895;41.950;24.372;2023-04-06T06:13:04;86057.56;;;0.10;90.18
11678;BME280;5895;41.950;24.372;2023-04-06T06:15:33;86057.56;;;0.10;90.96
11678;BME280;5895;41.950;24.372;2023-04-06T06:18:00;86058.00;;;0.13;91.25
11678;BME280;5895;41.950;24.372;2023-04-06T06:20:28;86060.22;;;0.23;90.83
11678;BME280;5895;41.950;24.372;2023-04-06T06:22:55;86067.16;;;0.36;91.25
11678;BME280;5895;41.950;24.372;2023-04-06T06:25:22;86058.41;;;0.51;90.21
11678;BME280;5895;41.950;24.372;2023-04-06T06:27:50;86061.81;;;0.72;90.25
11678;BME280;5895;41.950;24.372;2023-04-06T06:30:17;86064.63;;;0.84;89.15
11678;BME280;5895;41.950;24.372;2023-04-06T06:32:46;86055.63;;;0.94;88.95
11678;BME280;5895;41.950;24.372;2023-04-06T06:35:13;86046.59;;;0.98;88.82
11678;BME280;5895;41.950;24.372;2023-04-06T06:37:40;86054.28;;;1.05;88.65
11678;BME280;5895;41.950;24.372;2023-04-06T06:40:09;86053.34;;;1.13;88.49
11678;BME280;5895;41.950;24.372;2023-04-06T06:42:38;86050.00;;;1.19;87.63
11678;BME280;5895;41.950;24.372;2023-04-06T06:45:07;86055.50;;;1.29;88.04
11678;BME280;5895;41.950;24.372;2023-04-06T06:47:35;86053.78;;;1.43;87.84
11678;BME280;5895;41.950;24.372;2023-04-06T06:50:04;86050.09;;;1.58;87.91
11678;BME280;5895;41.950;24.372;2023-04-06T06:52:32;86061.09;;;1.72;87.88
11678;BME280;5895;41.950;24.372;2023-04-06T06:55:01;86055.78;;;1.67;87.62
11678;BME280;5895;41.950;24.372;2023-04-06T06:57:28;86066.22;;;1.59;89.86
11678;BME280;5895;41.950;24.372;2023-04-06T06:59:56;86065.22;;;1.60;88.06
11678;BME280;5895;41.950;24.372;2023-04-06T07:02:25;86062.03;;;1.51;88.87
11678;BME280;5895;41.950;24.372;2023-04-06T07:04:52;86073.47;;;1.55;89.32
11678;BME280;5895;41.950;24.372;2023-04-06T07:07:21;86060.09;;;1.67;89.39
11678;BME280;5895;41.950;24.372;2023-04-06T07:09:48;86066.78;;;1.68;90.85
11678;BME280;5895;41.950;24.372;2023-04-06T07:12:16;86065.00;;;1.68;92.24
11678;BME280;5895;41.950;24.372;2023-04-06T07:14:43;86062.47;;;1.62;91.09
11678;BME280;5895;41.950;24.372;2023-04-06T07:17:10;86068.53;;;1.41;91.39
11678;BME280;5895;41.950;24.372;2023-04-06T07:19:37;86067.16;;;1.51;91.69
11678;BME280;5895;41.950;24.372;2023-04-06T07:22:05;86064.22;;;1.48;92.03
11678;BME280;5895;41.950;24.372;2023-04-06T07:24:33;86061.28;;;1.57;90.61
11678;BME280;5895;41.950;24.372;2023-04-06T07:27:01;86062.50;;;1.75;90.75
11678;BME280;5895;41.950;24.372;2023-04-06T07:29:28;86069.56;;;1.93;90.42
11678;BME280;5895;41.950;24.372;2023-04-06T07:31:55;86069.94;;;1.96;91.44
11678;BME280;5895;41.950;24.372;2023-04-06T07:34:22;86073.09;;;1.85;92.56
11678;BME280;5895;41.950;24.372;2023-04-06T07:36:50;86084.09;;;1.66;92.74
11678;BME280;5895;41.950;24.372;2023-04-06T07:39:18;86079.94;;;1.51;92.76
11678;BME280;5895;41.950;24.372;2023-04-06T07:41:47;86084.25;;;1.44;92.64
11678;BME280;5895;41.950;24.372;2023-04-06T07:44:14;86077.78;;;1.55;90.89
11678;BME280;5895;41.950;24.372;2023-04-06T07:46:42;86081.56;;;1.79;91.40
11678;BME280;5895;41.950;24.372;2023-04-06T07:49:09;86074.28;;;1.89;92.00
11678;BME280;5895;41.950;24.372;2023-04-06T07:51:36;86078.25;;;1.92;90.77
11678;BME280;5895;41.950;24.372;2023-04-06T07:54:04;86084.13;;;1.92;90.27
11678;BME280;5895;41.950;24.372;2023-04-06T07:56:31;86080.97;;;1.90;90.00
11678;BME280;5895;41.950;24.372;2023-04-06T07:59:00;86081.19;;;1.82;88.68
11678;BME280;5895;41.950;24.372;2023-04-06T08:01:28;86081.97;;;1.82;88.47
11678;BME280;5895;41.950;24.372;2023-04-06T08:03:55;86079.78;;;1.79;87.52
11678;BME280;5895;41.950;24.372;2023-04-06T08:06:23;86081.38;;;1.80;85.72
11678;BME280;5895;41.950;24.372;2023-04-06T08:08:50;86082.53;;;1.84;85.85
11678;BME280;5895;41.950;24.372;2023-04-06T08:11:17;86082.56;;;1.91;85.47
11678;BME280;5895;41.950;24.372;2023-04-06T08:13:45;86087.84;;;1.96;82.76
11678;BME280;5895;41.950;24.372;2023-04-06T08:16:14;86092.00;;;1.97;83.69
11678;BME280;5895;41.950;24.372;2023-04-06T08:18:41;86088.88;;;2.08;85.17
11678;BME280;5895;41.950;24.372;2023-04-06T08:21:09;86089.25;;;2.19;82.51
11678;BME280;5895;41.950;24.372;2023-04-06T08:23:36;86077.44;;;2.18;81.73
11678;BME280;5895;41.950;24.372;2023-04-06T08:26:03;86079.41;;;2.29;81.89
11678;BME280;5895;41.950;24.372;2023-04-06T08:28:31;86086.09;;;2.36;81.21
11678;BME280;5895;41.950;24.372;2023-04-06T08:31:03;86085.88;;;2.45;82.73
11678;BME280;5895;41.950;24.372;2023-04-06T08:33:32;86080.56;;;2.53;82.35
11678;BME280;5895;41.950;24.372;2023-04-06T08:36:07;86084.47;;;2.62;81.49
11678;BME280;5895;41.950;24.372;2023-04-06T08:38:35;86076.19;;;2.67;81.92
11678;BME280;5895;41.950;24.372;2023-04-06T08:41:07;86080.13;;;2.76;81.50
11678;BME280;5895;41.950;24.372;2023-04-06T08:43:41;86085.63;;;2.73;81.91
11678;BME280;5895;41.950;24.372;2023-04-06T08:46:10;86073.03;;;2.78;83.66
11678;BME280;5895;41.950;24.372;2023-04-06T08:48:40;86077.53;;;2.82;83.14
11678;BME280;5895;41.950;24.372;2023-04-06T08:51:08;86078.50;;;2.88;83.63
11678;BME280;5895;41.950;24.372;2023-04-06T08:53:35;86071.97;;;2.99;83.85
11678;BME280;5895;41.950;24.372;2023-04-06T08:56:05;86068.56;;;3.11;83.00
11678;BME280;5895;41.950;24.372;2023-04-06T08:58:34;86066.56;;;3.27;82.25
11678;BME280;5895;41.950;24.372;2023-04-06T09:01:06;86067.66;;;3.44;81.95
11678;BME280;5895;41.950;24.372;2023-04-06T09:03:38;86064.13;;;3.77;81.41
11678;BME280;5895;41.950;24.372;2023-04-06T09:06:07;86066.25;;;3.80;80.70
11678;BME280;5895;41.950;24.372;2023-04-06T09:08:35;86066.94;;;4.00;80.76
11678;BME280;5895;41.950;24.372;2023-04-06T09:11:02;86057.41;;;4.07;79.11
11678;BME280;5895;41.950;24.372;2023-04-06T09:13:30;86057.88;;;4.22;78.80
11678;BME280;5895;41.950;24.372;2023-04-06T09:16:02;86063.50;;;4.38;78.92
11678;BME280;5895;41.950;24.372;2023-04-06T09:18:30;86059.25;;;4.50;79.19
11678;BME280;5895;41.950;24.372;2023-04-06T09:21:00;86053.94;;;4.45;79.16
11678;BME280;5895;41.950;24.372;2023-04-06T09:23:28;86062.69;;;4.37;79.47
11678;BME280;5895;41.950;24.372;2023-04-06T09:26:10;86063.19;;;4.28;80.63
11678;BME280;5895;41.950;24.372;2023-04-06T09:28:45;86071.91;;;4.20;80.62
11678;BME280;5895;41.950;24.372;2023-04-06T09:31:13;86065.00;;;4.20;81.24
11678;BME280;5895;41.950;24.372;2023-04-06T09:33:43;86064.69;;;4.35;80.72
11678;BME280;5895;41.950;24.372;2023-04-06T09:36:12;86061.03;;;4.49;80.24
11678;BME280;5895;41.950;24.372;2023-04-06T09:38:53;86063.69;;;4.61;80.09
11678;BME280;5895;41.950;24.372;2023-04-06T09:41:22;86060.25;;;4.67;79.37
11678;BME280;5895;41.950;24.372;2023-04-06T09:43:51;86063.25;;;4.64;78.29
11678;BME280;5895;41.950;24.372;2023-04-06T09:46:20;86059.53;;;4.60;79.15
11678;BME280;5895;41.950;24.372;2023-04-06T09:48:49;86064.56;;;4.73;79.52
11678;BME280;5895;41.950;24.372;2023-04-06T09:51:18;86062.63;;;4.87;79.36
11678;BME280;5895;41.950;24.372;2023-04-06T09:53:51;86065.50;;;4.97;78.94
11678;BME280;5895;41.950;24.372;2023-04-06T09:56:23;86060.59;;;4.96;77.98
11678;BME280;5895;41.950;24.372;2023-04-06T09:58:56;86062.84;;;5.04;78.08
11678;BME280;5895;41.950;24.372;2023-04-06T10:01:27;86070.09;;;5.14;77.84
11678;BME280;5895;41.950;24.372;2023-04-06T10:04:07;86064.28;;;5.18;78.73
11678;BME280;5895;41.950;24.372;2023-04-06T10:06:39;86059.44;;;5.28;77.68
11678;BME280;5895;41.950;24.372;2023-04-06T10:09:07;86067.78;;;5.24;77.22
11678;BME280;5895;41.950;24.372;2023-04-06T10:11:35;86054.72;;;5.25;78.39
11678;BME280;5895;41.950;24.372;2023-04-06T10:14:02;86072.09;;;5.30;78.21
11678;BME280;5895;41.950;24.372;2023-04-06T10:16:30;86071.94;;;5.25;77.88
11678;BME280;5895;41.950;24.372;2023-04-06T10:19:04;86069.91;;;5.27;77.82
11678;BME280;5895;41.950;24.372;2023-04-06T10:21:33;86061.41;;;5.63;77.48
11678;BME280;5895;41.950;24.372;2023-04-06T10:24:07;86063.50;;;5.84;77.36
11678;BME280;5895;41.950;24.372;2023-04-06T10:26:37;86060.94;;;5.84;75.72
11678;BME280;5895;41.950;24.372;2023-04-06T10:29:05;86060.94;;;5.66;76.37
11678;BME280;5895;41.950;24.372;2023-04-06T10:31:33;86067.41;;;5.57;76.24
11678;BME280;5895;41.950;24.372;2023-04-06T10:34:06;86065.25;;;5.54;76.83
11678;BME280;5895;41.950;24.372;2023-04-06T10:36:34;86062.03;;;5.58;76.73
11678;BME280;5895;41.950;24.372;2023-04-06T10:39:04;86064.72;;;5.52;76.04
11678;BME280;5895;41.950;24.372;2023-04-06T10:41:32;86052.84;;;5.51;75.99
11678;BME280;5895;41.950;24.372;2023-04-06T10:44:00;86059.66;;;5.45;75.60
11678;BME280;5895;41.950;24.372;2023-04-06T10:46:28;86056.28;;;5.26;75.02
11678;BME280;5895;41.950;24.372;2023-04-06T10:48:56;86062.72;;;5.17;76.86
11678;BME280;5895;41.950;24.372;2023-04-06T10:51:28;86054.00;;;5.18;76.32
11678;BME280;5895;41.950;24.372;2023-04-06T10:53:56;86056.72;;;5.23;76.65
11678;BME280;5895;41.950;24.372;2023-04-06T10:56:26;86059.44;;;5.28;75.63
11678;BME280;5895;41.950;24.372;2023-04-06T10:58:57;86062.97;;;5.64;75.03
11678;BME280;5895;41.950;24.372;2023-04-06T11:01:24;86052.69;;;6.24;73.96
11678;BME280;5895;41.950;24.372;2023-04-06T11:03:55;86056.69;;;6.20;73.02
11678;BME280;5895;41.950;24.372;2023-04-06T11:06:25;86055.31;;;6.06;72.86
11678;BME280;5895;41.950;24.372;2023-04-06T11:08:55;86051.19;;;5.87;73.99
11678;BME280;5895;41.950;24.372;2023-04-06T11:11:23;86044.63;;;5.72;73.77
11678;BME280;5895;41.950;24.372;2023-04-06T11:13:54;86053.97;;;5.55;73.82
11678;BME280;5895;41.950;24.372;2023-04-06T11:16:22;86047.34;;;5.47;75.53
11678;BME280;5895;41.950;24.372;2023-04-06T11:18:52;86045.50;;;5.36;74.91
11678;BME280;5895;41.950;24.372;2023-04-06T11:21:30;86044.41;;;5.44;75.48
11678;BME280;5895;41.950;24.372;2023-04-06T11:24:07;86045.84;;;5.40;74.96
11678;BME280;5895;41.950;24.372;2023-04-06T11:26:39;86053.94;;;5.25;74.56
11678;BME280;5895;41.950;24.372;2023-04-06T11:29:09;86046.72;;;5.15;74.62
11678;BME280;5895;41.950;24.372;2023-04-06T11:31:45;86049.44;;;5.02;75.16
11678;BME280;5895;41.950;24.372;2023-04-06T11:34:15;86049.16;;;4.92;76.28
11678;BME280;5895;41.950;24.372;2023-04-06T11:36:43;86046.13;;;4.76;76.23
11678;BME280;5895;41.950;24.372;2023-04-06T11:39:11;86046.03;;;4.65;75.84
11678;BME280;5895;41.950;24.372;2023-04-06T11:41:38;86044.97;;;4.54;76.72
11678;BME280;5895;41.950;24.372;2023-04-06T11:44:08;86053.50;;;4.48;77.15
11678;BME280;5895;41.950;24.372;2023-04-06T11:46:35;86049.66;;;4.39;77.05
11678;BME280;5895;41.950;24.372;2023-04-06T11:49:03;86049.06;;;4.37;77.08
11678;BME280;5895;41.950;24.372;2023-04-06T11:51:30;86050.06;;;4.36;76.93
11678;BME280;5895;41.950;24.372;2023-04-06T11:53:57;86053.22;;;4.38;77.38
11678;BME280;5895;41.950;24.372;2023-04-06T11:56:25;86052.06;;;4.34;76.99
11678;BME280;5895;41.950;24.372;2023-04-06T11:58:54;86052.91;;;4.28;77.05
11678;BME280;5895;41.950;24.372;2023-04-06T12:01:24;86054.88;;;4.25;77.34
11678;BME280;5895;41.950;24.372;2023-04-06T12:03:52;86045.88;;;4.16;77.47
11678;BME280;5895;41.950;24.372;2023-04-06T12:06:19;86047.66;;;4.16;77.30
11678;BME280;5895;41.950;24.372;2023-04-06T12:08:46;86052.81;;;4.09;77.11
11678;BME280;5895;41.950;24.372;2023-04-06T12:11:14;86058.78;;;4.03;77.40
11678;BME280;5895;41.950;24.372;2023-04-06T12:13:41;86059.84;;;3.95;77.40
11678;BME280;5895;41.950;24.372;2023-04-06T12:16:08;86047.22;;;3.94;77.60
11678;BME280;5895;41.950;24.372;2023-04-06T12:18:37;86051.47;;;3.82;76.68
11678;BME280;5895;41.950;24.372;2023-04-06T12:21:04;86048.91;;;3.82;77.17
11678;BME280;5895;41.950;24.372;2023-04-06T12:23:32;86053.03;;;3.83;77.01
11678;BME280;5895;41.950;24.372;2023-04-06T12:25:59;86042.22;;;3.74;76.74
11678;BME280;5895;41.950;24.372;2023-04-06T12:28:27;86042.66;;;3.64;76.73
11678;BME280;5895;41.950;24.372;2023-04-06T12:30:55;86053.75;;;3.58;77.47
11678;BME280;5895;41.950;24.372;2023-04-06T12:33:22;86048.25;;;3.55;77.76
11678;BME280;5895;41.950;24.372;2023-04-06T12:35:50;86056.56;;;3.50;77.55
11678;BME280;5895;41.950;24.372;2023-04-06T12:38:18;86052.84;;;3.46;77.83
11678;BME280;5895;41.950;24.372;2023-04-06T12:40:46;86050.72;;;3.36;77.25
11678;BME280;5895;41.950;24.372;2023-04-06T12:43:13;86049.19;;;3.29;77.79
11678;BME280;5895;41.950;24.372;2023-04-06T12:45:40;86047.84;;;3.19;78.00
11678;BME280;5895;41.950;24.372;2023-04-06T12:48:08;86037.44;;;3.14;78.20
11678;BME280;5895;41.950;24.372;2023-04-06T12:50:35;86050.63;;;3.11;78.96
11678;BME280;5895;41.950;24.372;2023-04-06T12:53:03;86048.84;;;3.12;78.65
11678;BME280;5895;41.950;24.372;2023-04-06T12:55:31;86043.91;;;3.17;78.51
11678;BME280;5895;41.950;24.372;2023-04-06T12:58:01;86036.19;;;3.24;78.11
11678;BME280;5895;41.950;24.372;2023-04-06T13:00:28;86043.66;;;3.25;77.78
11678;BME280;5895;41.950;24.372;2023-04-06T13:02:56;86044.06;;;3.29;77.89
11678;BME280;5895;41.950;24.372;2023-04-06T13:05:24;86043.06;;;3.30;77.89
11678;BME280;5895;41.950;24.372;2023-04-06T13:07:51;86041.09;;;3.32;77.81
11678;BME280;5895;41.950;24.372;2023-04-06T13:10:19;86042.69;;;3.19;77.17